Main page
METAR-TAF:

METAR-TAF

Airports :

Qingdao Liuting International Airport

Qingdao, China

latitude: 36-04N, longitude: 120-20E, elevation: 77 m

Current weather observation

The report was made 24 minutes ago, at 18:00 UTC
Wind 2 kt from variable directions
Temperature 0°C
Humidity 100%
Pressure 1020 hPa
Visibility: 0100 m
fog

METAR: ZSQD 091800Z VRB01MPS 0100 R35/0150N FG NSC 00/M00 Q1020 BECMG TL1930 FZFG

Time: 02:24 (18:24 UTC)

Forecast

The report was made 3 hours and 2 minutes ago, at 15:22 UTC
Forecast valid from 09 at 18 UTC to 10 at 18 UTC
Wind 4 kt from the North
Visibility: 0200 m
freezing fog
Becoming
from 10 at 01 UTC to 10 at 02 UTC
Wind 10 kt from the South
Visibility: 0600 m
Becoming
from 10 at 03 UTC to 10 at 04 UTC
Visibility: 1500 m
mist
Becoming
from 10 at 09 UTC to 10 at 10 UTC
Wind 10 kt from the North
Visibility: 3500 m

TAF: ZSQD 091522Z 0918/1018 36002MPS 0200 FZFG NSC TX10/1006Z TNM00/20Z BECMG 1001/1002 18005MPS 0600 BECMG 1003/1004 1500 BR BECMG 1009/1010 36005MPS 3500

Weather observations and forecasts of more than 4000 airports (METAR and TAF reports).

The available stations are represented by yellow and red dots on the map.

Hover mouse over dot to see the name of the station.

Then click to see weather observations and forecasts.

To change the map : click on the green buttons with a black cross to zoom in, on the green button with a dash to zoom out, or on the green arrows for adjacent maps.


METAR-TAF: